^^
B2 Weather Station Historical Data
Daily Summary for May 2, 2018 Units:  English    Metric   Both
Daily Weekly Monthly Yearly Custom
  High: Low: Average:
Temperature: 87.1 °F 65.7 °F 74.7 °F
Dew Point: 68.3 °F 48.7 °F 58.4 °F
Humidity: 87% 41% 58%
Wind Speed: 26.5mph 0.0mph 11.1mph
Wind Gust: 26.5mph - -
Wind- - SW
Pressure: 29.93 in 29.81 in -
Precipitation: 0.17 in    
Historical Graphs
 
 
Tabular Data for May 2, 2018
Time Temperature Dew Point Pressure Wind Wind Speed Wind Gust Humidity Rainfall Rate (Hourly) solar
00:04 70.8 °F 53.3 °F 29.92 in South 11.5 mph 11.5 mph 54% 0.00 in 0.0 W/m2
00:09 70.9 °F 53.4 °F 29.92 in SSW 13.0 mph 13.0 mph 54% 0.00 in 0.0 W/m2
00:14 71.1 °F 53.6 °F 29.92 in SSW 11.5 mph 11.5 mph 54% 0.00 in 0.0 W/m2
00:19 71.2 °F 53.2 °F 29.92 in SSW 11.5 mph 11.5 mph 53% 0.00 in 0.0 W/m2
00:24 71.3 °F 53.3 °F 29.92 in SSW 12.0 mph 12.0 mph 53% 0.00 in 0.0 W/m2
00:29 71.2 °F 53.7 °F 29.91 in SSW 12.7 mph 12.7 mph 54% 0.00 in 0.0 W/m2
00:34 71.0 °F 53.5 °F 29.91 in WSW 13.8 mph 13.8 mph 54% 0.00 in 0.0 W/m2
00:39 71.0 °F 53.5 °F 29.91 in South 15.0 mph 15.0 mph 54% 0.00 in 0.0 W/m2
00:44 71.2 °F 53.7 °F 29.91 in SW 19.6 mph 19.6 mph 54% 0.00 in 0.0 W/m2
00:49 71.1 °F 53.6 °F 29.91 in South 24.2 mph 24.2 mph 54% 0.00 in 0.0 W/m2
00:54 71.1 °F 53.6 °F 29.91 in SW 18.4 mph 18.4 mph 54% 0.00 in 0.0 W/m2
00:59 70.9 °F 53.4 °F 29.91 in SW 19.6 mph 19.6 mph 54% 0.00 in 0.0 W/m2
01:04 70.9 °F 53.4 °F 29.91 in SW 18.4 mph 18.4 mph 54% 0.00 in 0.0 W/m2
01:09 70.7 °F 53.7 °F 29.91 in South 16.1 mph 16.1 mph 55% 0.00 in 0.0 W/m2
01:14 70.6 °F 53.1 °F 29.91 in SSW 24.2 mph 24.2 mph 54% 0.00 in 0.0 W/m2
01:19 70.4 °F 53.5 °F 29.91 in South 16.1 mph 16.1 mph 55% 0.00 in 0.0 W/m2
01:24 70.2 °F 53.3 °F 29.92 in SW 13.8 mph 13.8 mph 55% 0.00 in 0.0 W/m2
01:29 69.9 °F 53.0 °F 29.91 in SSW 18.4 mph 18.4 mph 55% 0.00 in 0.0 W/m2
01:34 69.7 °F 53.3 °F 29.91 in SSW 15.0 mph 15.0 mph 56% 0.00 in 0.0 W/m2
01:39 69.5 °F 53.1 °F 29.91 in SSW 15.0 mph 15.0 mph 56% 0.00 in 0.0 W/m2
01:44 69.4 °F 53.0 °F 29.91 in SSW 11.5 mph 11.5 mph 56% 0.00 in 0.0 W/m2
01:49 69.3 °F 52.9 °F 29.91 in South 13.8 mph 13.8 mph 56% 0.00 in 0.0 W/m2
01:54 69.3 °F 52.9 °F 29.91 in SSW 11.5 mph 11.5 mph 56% 0.00 in 0.0 W/m2
01:59 69.2 °F 52.8 °F 29.91 in SW 11.5 mph 11.5 mph 56% 0.00 in 0.0 W/m2
02:04 69.3 °F 52.9 °F 29.91 in SSW 10.4 mph 10.4 mph 56% 0.00 in 0.0 W/m2
02:09 69.2 °F 52.8 °F 29.91 in SSW 7.0 mph 7.0 mph 56% 0.00 in 0.0 W/m2
02:14 69.1 °F 53.2 °F 29.91 in SSW 15.0 mph 15.0 mph 57% 0.00 in 0.0 W/m2
02:19 68.8 °F 52.9 °F 29.91 in SSW 12.7 mph 12.7 mph 57% 0.00 in 0.0 W/m2
02:24 68.7 °F 52.8 °F 29.91 in South 10.4 mph 10.4 mph 57% 0.00 in 0.0 W/m2
02:29 68.5 °F 52.7 °F 29.90 in SSW 12.0 mph 12.0 mph 57% 0.00 in 0.0 W/m2
02:34 68.5 °F 52.7 °F 29.91 in SW 11.5 mph 11.5 mph 57% 0.00 in 0.0 W/m2
02:39 68.5 °F 53.1 °F 29.91 in South 9.2 mph 9.2 mph 58% 0.00 in 0.0 W/m2
02:44 68.3 °F 52.9 °F 29.90 in SSE 6.9 mph 6.9 mph 58% 0.00 in 0.0 W/m2
02:49 68.2 °F 52.9 °F 29.90 in SSW 4.6 mph 4.6 mph 58% 0.00 in 0.0 W/m2
02:54 68.1 °F 52.8 °F 29.90 in SSW 11.5 mph 11.5 mph 58% 0.00 in 0.0 W/m2
02:59 68.0 °F 52.7 °F 29.90 in SW 12.7 mph 12.7 mph 58% 0.00 in 0.0 W/m2
03:04 68.0 °F 52.7 °F 29.90 in SSW 11.5 mph 11.5 mph 58% 0.00 in 0.0 W/m2
03:09 68.0 °F 52.7 °F 29.90 in South 12.7 mph 12.7 mph 58% 0.00 in 0.0 W/m2
03:14 68.0 °F 52.7 °F 29.90 in SW 11.5 mph 11.5 mph 58% 0.00 in 0.0 W/m2
03:19 67.9 °F 52.6 °F 29.89 in SSE 19.6 mph 19.6 mph 58% 0.00 in 0.0 W/m2
03:24 68.0 °F 52.7 °F 29.90 in SSW 15.0 mph 15.0 mph 58% 0.00 in 0.0 W/m2
03:29 67.9 °F 52.6 °F 29.90 in SSW 12.7 mph 12.7 mph 58% 0.00 in 0.0 W/m2
03:34 67.9 °F 52.6 °F 29.90 in South 6.0 mph 6.0 mph 58% 0.00 in 0.0 W/m2
03:39 67.9 °F 52.6 °F 29.90 in SSW 10.4 mph 10.4 mph 58% 0.00 in 0.0 W/m2
03:44 67.7 °F 52.4 °F 29.90 in SW 12.7 mph 12.7 mph 58% 0.00 in 0.0 W/m2
03:49 67.7 °F 52.4 °F 29.89 in SW 13.8 mph 13.8 mph 58% 0.00 in 0.0 W/m2
03:54 67.6 °F 52.3 °F 29.90 in SSW 11.5 mph 11.5 mph 58% 0.00 in 0.0 W/m2
03:59 67.5 °F 52.2 °F 29.90 in WSW 11.5 mph 11.5 mph 58% 0.00 in 0.0 W/m2
04:04 67.4 °F 52.1 °F 29.90 in SSW 12.7 mph 12.7 mph 58% 0.00 in 0.0 W/m2
04:09 67.3 °F 52.0 °F 29.90 in SSW 17.3 mph 17.3 mph 58% 0.00 in 0.0 W/m2
04:14 67.2 °F 51.9 °F 29.90 in SSW 15.0 mph 15.0 mph 58% 0.00 in 0.0 W/m2
04:19 67.1 °F 51.8 °F 29.89 in SSW 15.0 mph 15.0 mph 58% 0.00 in 0.0 W/m2
04:24 67.1 °F 51.8 °F 29.90 in SSW 13.8 mph 13.8 mph 58% 0.00 in 0.0 W/m2
04:29 67.1 °F 51.8 °F 29.90 in SSW 16.1 mph 16.1 mph 58% 0.00 in 0.0 W/m2
04:34 67.0 °F 51.7 °F 29.89 in SSW 6.9 mph 6.9 mph 58% 0.00 in 0.0 W/m2
04:39 66.8 °F 51.5 °F 29.89 in SSW 11.5 mph 11.5 mph 58% 0.00 in 0.0 W/m2
04:44 66.7 °F 51.0 °F 29.89 in SSW 16.1 mph 16.1 mph 57% 0.00 in 0.0 W/m2
04:49 66.7 °F 51.0 °F 29.89 in WSW 10.4 mph 10.4 mph 57% 0.00 in 0.0 W/m2
04:54 66.6 °F 50.9 °F 29.89 in SW 17.3 mph 17.3 mph 57% 0.00 in 0.0 W/m2
04:59 66.6 °F 50.9 °F 29.89 in South 12.0 mph 12.0 mph 57% 0.00 in 0.0 W/m2
05:04 66.5 °F 50.8 °F 29.89 in South 6.9 mph 6.9 mph 57% 0.00 in 0.0 W/m2
05:09 66.5 °F 50.8 °F 29.89 in SW 9.2 mph 9.2 mph 57% 0.00 in 0.0 W/m2
05:14 66.4 °F 50.7 °F 29.88 in SW 19.6 mph 19.6 mph 57% 0.00 in 0.0 W/m2
05:19 66.4 °F 50.2 °F 29.88 in SW 13.8 mph 13.8 mph 56% 0.00 in 0.0 W/m2
05:24 66.5 °F 50.3 °F 29.89 in SSW 3.5 mph 3.5 mph 56% 0.00 in 0.0 W/m2
05:29 66.5 °F 49.8 °F 29.89 in SW 12.7 mph 12.7 mph 55% 0.00 in 0.0 W/m2
05:34 66.7 °F 50.0 °F 29.89 in SSW 11.5 mph 11.5 mph 55% 0.00 in 0.0 W/m2
05:39 66.6 °F 49.4 °F 29.90 in SSW 11.5 mph 11.5 mph 54% 0.00 in 0.0 W/m2
05:44 66.6 °F 49.4 °F 29.90 in WSW 3.5 mph 3.5 mph 54% 0.00 in 0.0 W/m2
05:49 66.5 °F 48.8 °F 29.89 in South 12.7 mph 12.7 mph 53% 0.00 in 0.0 W/m2
05:54 66.4 °F 48.7 °F 29.90 in SW 10.0 mph 10.0 mph 53% 0.00 in 0.0 W/m2
05:59 66.3 °F 48.7 °F 29.90 in SW 9.2 mph 9.2 mph 53% 0.00 in 5.0 W/m2
06:04 66.2 °F 49.1 °F 29.90 in WSW 11.5 mph 11.5 mph 54% 0.00 in 11.0 W/m2
06:09 66.1 °F 49.0 °F 29.90 in South 11.5 mph 11.5 mph 54% 0.00 in 14.0 W/m2
06:14 65.9 °F 48.8 °F 29.90 in WSW 10.4 mph 10.4 mph 54% 0.00 in 19.0 W/m2
06:19 65.8 °F 48.7 °F 29.90 in SSW 10.4 mph 10.4 mph 54% 0.00 in 25.0 W/m2
06:24 65.8 °F 48.7 °F 29.91 in WSW 15.0 mph 15.0 mph 54% 0.00 in 32.0 W/m2
06:29 65.8 °F 48.7 °F 29.91 in SW 9.0 mph 9.0 mph 54% 0.00 in 37.0 W/m2
06:34 65.8 °F 49.2 °F 29.92 in SSW 5.8 mph 5.8 mph 55% 0.00 in 40.0 W/m2
06:39 65.8 °F 49.2 °F 29.92 in SW 6.9 mph 6.9 mph 55% 0.00 in 49.0 W/m2
06:44 65.8 °F 49.2 °F 29.92 in SSW 11.5 mph 11.5 mph 55% 0.00 in 54.0 W/m2
06:49 65.8 °F 49.2 °F 29.92 in South 11.5 mph 11.5 mph 55% 0.00 in 54.0 W/m2
06:54 65.7 °F 49.1 °F 29.92 in SSW 10.4 mph 10.4 mph 55% 0.00 in 74.0 W/m2
06:59 65.8 °F 49.2 °F 29.92 in South 13.8 mph 13.8 mph 55% 0.00 in 104.0 W/m2
07:04 65.9 °F 49.3 °F 29.92 in South 8.1 mph 8.1 mph 55% 0.00 in 135.0 W/m2
07:09 66.2 °F 49.6 °F 29.92 in SW 9.2 mph 9.2 mph 55% 0.00 in 156.0 W/m2
07:14 66.4 °F 49.2 °F 29.92 in SW 12.7 mph 12.7 mph 54% 0.00 in 98.0 W/m2
07:19 66.6 °F 49.4 °F 29.92 in WSW 9.2 mph 9.2 mph 54% 0.00 in 176.0 W/m2
07:24 66.9 °F 49.7 °F 29.92 in SSE 11.5 mph 11.5 mph 54% 0.00 in 160.0 W/m2
07:29 67.1 °F 49.9 °F 29.93 in SW 10.4 mph 10.4 mph 54% 0.00 in 172.0 W/m2
07:34 67.3 °F 50.1 °F 29.92 in SSW 10.4 mph 10.4 mph 54% 0.00 in 192.0 W/m2
07:39 67.6 °F 49.9 °F 29.92 in SW 13.8 mph 13.8 mph 53% 0.00 in 178.0 W/m2
07:44 67.8 °F 50.0 °F 29.92 in SSW 11.5 mph 11.5 mph 53% 0.00 in 148.0 W/m2
07:50 68.2 °F 50.4 °F 29.92 in SW 11.5 mph 11.5 mph 53% 0.00 in 322.0 W/m2
07:55 68.9 °F 51.1 °F 29.92 in SW 13.8 mph 13.8 mph 53% 0.00 in 281.0 W/m2
08:00 69.6 °F 51.2 °F 29.92 in SW 13.8 mph 13.8 mph 52% 0.00 in 288.0 W/m2
08:05 70.0 °F 51.0 °F 29.92 in SW 10.4 mph 10.4 mph 51% 0.00 in 234.0 W/m2
08:10 70.3 °F 51.8 °F 29.92 in SW 9.2 mph 9.2 mph 52% 0.00 in 330.0 W/m2
08:15 70.8 °F 52.3 °F 29.92 in SSW 19.6 mph 19.6 mph 52% 0.00 in 272.0 W/m2
08:20 71.2 °F 52.1 °F 29.92 in SSW 11.5 mph 11.5 mph 51% 0.00 in 225.0 W/m2
08:25 71.4 °F 52.3 °F 29.91 in South 15.0 mph 15.0 mph 51% 0.00 in 227.0 W/m2
08:30 71.6 °F 52.5 °F 29.92 in West 19.6 mph 19.6 mph 51% 0.00 in 225.0 W/m2
08:35 71.8 °F 53.2 °F 29.92 in SSW 12.7 mph 12.7 mph 52% 0.00 in 179.0 W/m2
08:40 71.8 °F 53.2 °F 29.91 in West 18.4 mph 18.4 mph 52% 0.00 in 172.0 W/m2
08:45 71.9 °F 53.3 °F 29.92 in SW 16.1 mph 16.1 mph 52% 0.00 in 193.0 W/m2
08:50 72.0 °F 53.4 °F 29.92 in WSW 19.6 mph 19.6 mph 52% 0.00 in 216.0 W/m2
08:55 72.1 °F 53.5 °F 29.93 in SSW 15.0 mph 15.0 mph 52% 0.00 in 244.0 W/m2
09:00 72.3 °F 53.7 °F 29.92 in SW 17.3 mph 17.3 mph 52% 0.00 in 241.0 W/m2
09:05 72.6 °F 53.4 °F 29.92 in SSW 13.8 mph 13.8 mph 51% 0.00 in 432.0 W/m2
09:10 73.1 °F 54.4 °F 29.90 in SSW 8.1 mph 8.1 mph 52% 0.00 in 415.0 W/m2
09:15 73.7 °F 54.4 °F 29.91 in SSE 15.0 mph 15.0 mph 51% 0.00 in 513.0 W/m2
09:20 74.2 °F 54.4 °F 29.90 in South 15.0 mph 15.0 mph 50% 0.00 in 564.0 W/m2
09:25 74.4 °F 55.1 °F 29.90 in SW 11.5 mph 11.5 mph 51% 0.00 in 598.0 W/m2
09:30 75.1 °F 55.2 °F 29.91 in SW 17.3 mph 17.3 mph 50% 0.00 in 696.0 W/m2
09:35 75.5 °F 54.4 °F 29.91 in SSW 17.3 mph 17.3 mph 48% 0.00 in 663.0 W/m2
09:40 75.3 °F 54.8 °F 29.92 in South 19.6 mph 19.6 mph 49% 0.00 in 538.0 W/m2
09:45 75.3 °F 54.8 °F 29.92 in SW 15.0 mph 15.0 mph 49% 0.00 in 582.0 W/m2
09:50 75.6 °F 55.6 °F 29.92 in SW 17.0 mph 17.0 mph 50% 0.00 in 726.0 W/m2
09:55 76.0 °F 54.9 °F 29.91 in SW 25.3 mph 25.3 mph 48% 0.00 in 329.0 W/m2
10:00 76.3 °F 56.3 °F 29.91 in SW 20.7 mph 20.7 mph 50% 0.00 in 747.0 W/m2
10:05 76.9 °F 56.3 °F 29.92 in SSW 17.3 mph 17.3 mph 49% 0.00 in 362.0 W/m2
10:10 76.8 °F 55.6 °F 29.91 in SSW 17.3 mph 17.3 mph 48% 0.00 in 272.0 W/m2
10:15 77.1 °F 56.5 °F 29.91 in WSW 21.9 mph 21.9 mph 49% 0.00 in 663.0 W/m2
10:20 77.9 °F 56.6 °F 29.91 in South 16.1 mph 16.1 mph 48% 0.00 in 673.0 W/m2
10:25 78.4 °F 57.1 °F 29.91 in WSW 15.0 mph 15.0 mph 48% 0.00 in 659.0 W/m2
10:30 78.9 °F 57.5 °F 29.91 in SSW 9.2 mph 9.2 mph 48% 0.00 in 719.0 W/m2
10:35 79.3 °F 57.3 °F 29.91 in SSW 11.5 mph 11.5 mph 47% 0.00 in 605.0 W/m2
10:40 79.7 °F 57.7 °F 29.91 in South 13.8 mph 13.8 mph 47% 0.00 in 724.0 W/m2
10:45 80.0 °F 56.7 °F 29.91 in South 15.0 mph 15.0 mph 45% 0.00 in 469.0 W/m2
10:50 79.7 °F 57.1 °F 29.92 in South 12.7 mph 12.7 mph 46% 0.00 in 396.0 W/m2
10:55 79.9 °F 56.7 °F 29.91 in WSW 21.9 mph 21.9 mph 45% 0.00 in 663.0 W/m2
11:00 80.5 °F 57.2 °F 29.92 in SSW 15.0 mph 15.0 mph 45% 0.00 in 675.0 W/m2
11:05 81.3 °F 57.3 °F 29.92 in SW 18.4 mph 18.4 mph 44% 0.00 in 617.0 W/m2
11:10 81.4 °F 57.4 °F 29.92 in South 23.0 mph 23.0 mph 44% 0.00 in 694.0 W/m2
11:15 81.6 °F 57.6 °F 29.92 in WSW 13.0 mph 13.0 mph 44% 0.00 in 721.0 W/m2
11:20 82.0 °F 57.9 °F 29.91 in WSW 15.0 mph 15.0 mph 44% 0.00 in 770.0 W/m2
11:25 82.1 °F 57.4 °F 29.91 in SW 20.7 mph 20.7 mph 43% 0.00 in 647.0 W/m2
11:30 82.2 °F 57.5 °F 29.92 in SW 21.9 mph 21.9 mph 43% 0.00 in 717.0 W/m2
11:35 82.1 °F 57.4 °F 29.92 in WSW 25.3 mph 25.3 mph 43% 0.00 in 793.0 W/m2
11:40 82.6 °F 59.1 °F 29.91 in SW 13.8 mph 13.8 mph 45% 0.00 in 840.0 W/m2
11:45 83.1 °F 58.3 °F 29.91 in WSW 16.1 mph 16.1 mph 43% 0.00 in 744.0 W/m2
11:50 83.1 °F 58.3 °F 29.92 in SW 16.0 mph 16.0 mph 43% 0.00 in 812.0 W/m2
11:55 83.1 °F 58.3 °F 29.91 in SSW 20.7 mph 20.7 mph 43% 0.00 in 805.0 W/m2
12:00 83.4 °F 57.9 °F 29.91 in SW 19.6 mph 19.6 mph 42% 0.00 in 828.0 W/m2
12:05 83.5 °F 58.0 °F 29.91 in WSW 25.3 mph 25.3 mph 42% 0.00 in 777.0 W/m2
12:10 83.5 °F 58.6 °F 29.91 in SW 16.0 mph 16.0 mph 43% 0.00 in 613.0 W/m2
12:15 83.7 °F 58.2 °F 29.91 in WSW 19.6 mph 19.6 mph 42% 0.00 in 851.0 W/m2
12:20 84.1 °F 58.5 °F 29.91 in West 18.4 mph 18.4 mph 42% 0.00 in 673.0 W/m2
12:25 84.5 °F 59.5 °F 29.91 in SSE 11.5 mph 11.5 mph 43% 0.00 in 592.0 W/m2
12:30 84.5 °F 58.9 °F 29.90 in WSW 17.3 mph 17.3 mph 42% 0.00 in 745.0 W/m2
12:35 84.8 °F 59.2 °F 29.90 in West 19.6 mph 19.6 mph 42% 0.00 in 770.0 W/m2
12:40 84.3 °F 58.7 °F 29.91 in WSW 18.0 mph 18.0 mph 42% 0.00 in 652.0 W/m2
12:45 84.0 °F 59.1 °F 29.91 in SSW 10.0 mph 10.0 mph 43% 0.00 in 1009.0 W/m2
12:50 83.8 °F 58.3 °F 29.91 in SW 20.7 mph 20.7 mph 42% 0.00 in 466.0 W/m2
12:55 83.8 °F 59.6 °F 29.90 in WSW 10.4 mph 10.4 mph 44% 0.00 in 591.0 W/m2
13:00 84.5 °F 60.2 °F 29.90 in WSW 15.0 mph 15.0 mph 44% 0.00 in 534.0 W/m2
13:05 84.7 °F 59.1 °F 29.90 in SW 19.6 mph 19.6 mph 42% 0.00 in 548.0 W/m2
13:10 84.9 °F 59.9 °F 29.90 in WSW 13.8 mph 13.8 mph 43% 0.00 in 550.0 W/m2
13:15 85.4 °F 59.7 °F 29.89 in SW 12.7 mph 12.7 mph 42% 0.00 in 879.0 W/m2
13:20 85.6 °F 59.2 °F 29.89 in WSW 16.1 mph 16.1 mph 41% 0.00 in 763.0 W/m2
13:25 85.6 °F 60.5 °F 29.89 in SW 12.7 mph 12.7 mph 43% 0.00 in 932.0 W/m2
13:30 85.9 °F 60.1 °F 29.89 in WSW 19.6 mph 19.6 mph 42% 0.00 in 921.0 W/m2
13:35 86.0 °F 60.2 °F 29.89 in WSW 13.8 mph 13.8 mph 42% 0.00 in 357.0 W/m2
13:40 85.8 °F 60.7 °F 29.89 in West 10.4 mph 10.4 mph 43% 0.00 in 1090.0 W/m2
13:45 86.2 °F 61.1 °F 29.89 in WSW 15.0 mph 15.0 mph 43% 0.00 in 998.0 W/m2
13:50 85.9 °F 60.8 °F 29.89 in SW 11.5 mph 11.5 mph 43% 0.00 in 332.0 W/m2
13:55 85.9 °F 61.5 °F 29.89 in South 13.8 mph 13.8 mph 44% 0.00 in 977.0 W/m2
13:59 86.0 °F 60.9 °F 29.89 in WSW 12.7 mph 12.7 mph 43% 0.00 in 225.0 W/m2
14:04 85.4 °F 61.0 °F 29.89 in West 11.5 mph 11.5 mph 44% 0.00 in 267.0 W/m2
14:09 85.0 °F 61.3 °F 29.89 in SW 12.7 mph 12.7 mph 45% 0.00 in 243.0 W/m2
14:14 84.9 °F 61.2 °F 29.89 in WSW 11.5 mph 11.5 mph 45% 0.00 in 295.0 W/m2
14:19 84.8 °F 61.1 °F 29.89 in SSW 10.4 mph 10.4 mph 45% 0.00 in 364.0 W/m2
14:24 85.0 °F 61.3 °F 29.89 in SW 13.8 mph 13.8 mph 45% 0.00 in 345.0 W/m2
14:29 85.0 °F 61.3 °F 29.89 in South 15.0 mph 15.0 mph 45% 0.00 in 302.0 W/m2
14:34 84.8 °F 61.1 °F 29.89 in SW 6.9 mph 6.9 mph 45% 0.00 in 258.0 W/m2
14:39 84.8 °F 61.7 °F 29.88 in SSW 6.9 mph 6.9 mph 46% 0.00 in 482.0 W/m2
14:44 84.9 °F 61.2 °F 29.88 in SSW 11.5 mph 11.5 mph 45% 0.00 in 285.0 W/m2
14:49 84.6 °F 60.9 °F 29.88 in SSW 17.3 mph 17.3 mph 45% 0.00 in 267.0 W/m2
14:54 84.4 °F 61.4 °F 29.88 in SSW 11.5 mph 11.5 mph 46% 0.00 in 248.0 W/m2
14:59 84.4 °F 61.4 °F 29.87 in SSW 11.5 mph 11.5 mph 46% 0.00 in 267.0 W/m2
15:04 84.5 °F 61.4 °F 29.87 in SW 3.5 mph 3.5 mph 46% 0.00 in 281.0 W/m2
15:09 84.7 °F 62.2 °F 29.87 in SW 8.1 mph 8.1 mph 47% 0.00 in 202.0 W/m2
15:14 84.7 °F 61.0 °F 29.87 in WSW 10.4 mph 10.4 mph 45% 0.00 in 185.0 W/m2
15:19 84.6 °F 60.9 °F 29.87 in SW 10.4 mph 10.4 mph 45% 0.00 in 139.0 W/m2
15:24 84.6 °F 60.9 °F 29.86 in SSW 6.9 mph 6.9 mph 45% 0.00 in 158.0 W/m2
15:29 84.6 °F 60.9 °F 29.86 in WSW 3.5 mph 3.5 mph 45% 0.00 in 229.0 W/m2
15:34 85.0 °F 61.3 °F 29.86 in SSW 8.1 mph 8.1 mph 45% 0.00 in 301.0 W/m2
15:39 85.6 °F 62.4 °F 29.85 in SSW 3.5 mph 3.5 mph 46% 0.00 in 338.0 W/m2
15:44 86.2 °F 61.1 °F 29.85 in South 11.5 mph 11.5 mph 43% 0.00 in 209.0 W/m2
15:49 86.3 °F 61.2 °F 29.85 in WSW 11.5 mph 11.5 mph 43% 0.00 in 141.0 W/m2
15:54 85.8 °F 61.4 °F 29.84 in SSW 3.5 mph 3.5 mph 44% 0.00 in 169.0 W/m2
15:59 85.7 °F 61.9 °F 29.84 in SSW 6.9 mph 6.9 mph 45% 0.00 in 782.0 W/m2
16:04 86.8 °F 62.3 °F 29.84 in WSW 12.7 mph 12.7 mph 44% 0.00 in 225.0 W/m2
16:09 87.1 °F 61.9 °F 29.84 in SSW 11.5 mph 11.5 mph 43% 0.00 in 202.0 W/m2
16:14 86.7 °F 61.5 °F 29.84 in SSW 9.2 mph 9.2 mph 43% 0.00 in 135.0 W/m2
16:19 86.2 °F 61.7 °F 29.84 in South 9.2 mph 9.2 mph 44% 0.00 in 107.0 W/m2
16:24 85.8 °F 60.7 °F 29.84 in South 11.5 mph 11.5 mph 43% 0.00 in 123.0 W/m2
16:29 85.6 °F 61.2 °F 29.84 in SSE 12.7 mph 12.7 mph 44% 0.00 in 86.0 W/m2
16:34 85.4 °F 61.6 °F 29.84 in SSW 11.5 mph 11.5 mph 45% 0.00 in 83.0 W/m2
16:39 85.3 °F 61.6 °F 29.83 in South 16.1 mph 16.1 mph 45% 0.00 in 79.0 W/m2
16:40 85.3 °F 62.2 °F 29.83 in South 16.1 mph 16.1 mph 46% 0.00 in 72.0 W/m2
16:45 85.1 °F 62.0 °F 29.84 in SW 10.4 mph 10.4 mph 46% 0.00 in 47.0 W/m2
16:50 85.0 °F 62.5 °F 29.83 in SSW 18.4 mph 18.4 mph 47% 0.00 in 51.0 W/m2
16:55 84.9 °F 65.3 °F 29.84 in SW 11.5 mph 11.5 mph 52% 0.00 in 62.0 W/m2
17:00 83.8 °F 64.8 °F 29.84 in SSW 17.0 mph 17.0 mph 53% 0.00 in 74.0 W/m2
17:05 83.0 °F 64.6 °F 29.83 in SSW 13.0 mph 13.0 mph 54% 0.00 in 65.0 W/m2
17:10 82.7 °F 64.9 °F 29.84 in SW 4.0 mph 4.0 mph 55% 0.00 in 62.0 W/m2
17:15 82.0 °F 65.3 °F 29.86 in WNW 26.5 mph 26.5 mph 57% 0.00 in 28.0 W/m2
17:20 76.6 °F 64.8 °F 29.84 in West 17.3 mph 17.3 mph 67% 0.00 in 33.0 W/m2
17:25 75.9 °F 65.0 °F 29.84 in WNW 13.8 mph 13.8 mph 69% 0.00 in 42.0 W/m2
17:30 76.6 °F 65.7 °F 29.83 in West 9.2 mph 9.2 mph 69% 0.00 in 35.0 W/m2
17:35 76.3 °F 65.4 °F 29.83 in WNW 2.3 mph 2.3 mph 69% 0.00 in 21.0 W/m2
17:40 75.8 °F 66.1 °F 29.83 in NW 3.5 mph 3.5 mph 72% 0.02 in 25.0 W/m2
17:45 74.7 °F 66.2 °F 29.83 in Calm     75% 0.03 in 69.0 W/m2
17:50 73.9 °F 66.2 °F 29.83 in Calm     77% 0.03 in 44.0 W/m2
17:55 73.3 °F 66.4 °F 29.83 in Calm     79% 0.03 in 58.0 W/m2
18:00 73.0 °F 66.5 °F 29.82 in Calm     80% 0.03 in 33.0 W/m2
18:05 72.8 °F 66.6 °F 29.82 in NNW 4.6 mph 4.6 mph 81% 0.07 in 18.0 W/m2
18:10 72.5 °F 66.7 °F 29.82 in Calm     82% 0.08 in 37.0 W/m2
18:15 72.4 °F 66.9 °F 29.82 in Calm     83% 0.08 in 37.0 W/m2
18:20 72.4 °F 66.9 °F 29.82 in Calm     83% 0.08 in 39.0 W/m2
18:25 72.4 °F 66.9 °F 29.82 in Calm     83% 0.08 in 58.0 W/m2
18:30 72.6 °F 67.5 °F 29.82 in Calm     84% 0.08 in 72.0 W/m2
18:35 72.6 °F 67.8 °F 29.81 in Calm     85% 0.08 in 42.0 W/m2
18:40 72.5 °F 68.1 °F 29.81 in Calm     86% 0.06 in 23.0 W/m2
18:45 72.4 °F 68.3 °F 29.81 in Calm     87% 0.05 in 30.0 W/m2
18:50 72.2 °F 68.1 °F 29.81 in Calm     87% 0.05 in 35.0 W/m2
18:55 72.2 °F 68.1 °F 29.81 in Calm     87% 0.05 in 35.0 W/m2
19:00 72.1 °F 68.0 °F 29.81 in Calm     87% 0.05 in 30.0 W/m2
19:05 72.2 °F 67.8 °F 29.81 in Calm     86% 0.01 in 28.0 W/m2
19:10 72.5 °F 67.4 °F 29.82 in Calm     84% 0.00 in 26.0 W/m2
19:15 73.9 °F 67.0 °F 29.81 in Calm     79% 0.00 in 32.0 W/m2
19:20 75.3 °F 66.4 °F 29.82 in South 8.1 mph 8.1 mph 74% 0.00 in 12.0 W/m2
19:25 76.9 °F 66.4 °F 29.81 in SSW 10.4 mph 10.4 mph 70% 0.00 in 5.0 W/m2
19:30 78.3 °F 66.9 °F 29.84 in WSW 20.0 mph 20.0 mph 68% 0.00 in 0.0 W/m2
19:35 74.9 °F 65.7 °F 29.82 in WSW 15.0 mph 15.0 mph 73% 0.09 in 0.0 W/m2
19:40 72.5 °F 64.1 °F 29.83 in WSW 6.9 mph 6.9 mph 75% 0.09 in 0.0 W/m2
19:45 71.7 °F 64.8 °F 29.82 in SW 5.8 mph 5.8 mph 79% 0.09 in 0.0 W/m2
19:50 72.0 °F 65.8 °F 29.82 in SW 9.2 mph 9.2 mph 81% 0.09 in 0.0 W/m2
19:55 72.4 °F 66.6 °F 29.83 in WSW 8.1 mph 8.1 mph 82% 0.09 in 0.0 W/m2
20:00 72.6 °F 66.8 °F 29.83 in SW 3.5 mph 3.5 mph 82% 0.09 in 0.0 W/m2
20:05 72.7 °F 66.9 °F 29.83 in Calm     82% 0.09 in 0.0 W/m2
20:10 73.0 °F 67.2 °F 29.83 in WSW 4.6 mph 4.6 mph 82% 0.09 in 0.0 W/m2
20:15 73.3 °F 67.5 °F 29.83 in SW 2.3 mph 2.3 mph 82% 0.09 in 0.0 W/m2
20:20 73.5 °F 67.3 °F 29.83 in WSW 2.3 mph 2.3 mph 81% 0.09 in 0.0 W/m2
20:25 73.7 °F 67.5 °F 29.83 in SW 4.0 mph 4.0 mph 81% 0.09 in 0.0 W/m2
20:30 74.1 °F 67.5 °F 29.83 in West 11.5 mph 11.5 mph 80% 0.09 in 0.0 W/m2
20:35 74.8 °F 67.1 °F 29.83 in WSW 16.1 mph 16.1 mph 77% 0.00 in 0.0 W/m2
20:40 75.3 °F 67.2 °F 29.83 in WSW 11.5 mph 11.5 mph 76% 0.00 in 0.0 W/m2
20:45 75.2 °F 67.1 °F 29.84 in SW 4.6 mph 4.6 mph 76% 0.00 in 0.0 W/m2
20:50 74.8 °F 66.7 °F 29.83 in SW 4.0 mph 4.0 mph 76% 0.00 in 0.0 W/m2
20:55 74.4 °F 66.0 °F 29.83 in WSW 5.8 mph 5.8 mph 75% 0.00 in 0.0 W/m2
21:00 74.1 °F 66.0 °F 29.83 in SW 2.3 mph 2.3 mph 76% 0.00 in 0.0 W/m2
21:05 73.7 °F 66.0 °F 29.84 in SSW 4.6 mph 4.6 mph 77% 0.00 in 0.0 W/m2
21:10 73.3 °F 66.0 °F 29.85 in SW 2.3 mph 2.3 mph 78% 0.00 in 0.0 W/m2
21:15 73.1 °F 65.8 °F 29.85 in Calm     78% 0.00 in 0.0 W/m2
21:20 72.8 °F 65.5 °F 29.85 in Calm     78% 0.00 in 0.0 W/m2
21:25 72.6 °F 65.3 °F 29.85 in Calm     78% 0.00 in 0.0 W/m2
21:30 72.2 °F 65.3 °F 29.86 in Calm     79% 0.00 in 0.0 W/m2
21:35 71.6 °F 65.1 °F 29.86 in Calm     80% 0.00 in 0.0 W/m2
21:40 71.3 °F 65.2 °F 29.86 in Calm     81% 0.00 in 0.0 W/m2
21:45 71.5 °F 65.4 °F 29.86 in Calm     81% 0.00 in 0.0 W/m2
21:50 71.6 °F 65.5 °F 29.86 in SSW 3.5 mph   81% 0.00 in 0.0 W/m2
21:55 71.7 °F 65.6 °F 29.86 in SSW 3.5 mph 3.5 mph 81% 0.00 in 0.0 W/m2
22:00 72.2 °F 65.7 °F 29.86 in SSW 8.0 mph 8.0 mph 80% 0.00 in 0.0 W/m2
22:05 72.7 °F 65.8 °F 29.86 in SSW 6.0 mph 6.0 mph 79% 0.00 in 0.0 W/m2
22:10 73.0 °F 65.7 °F 29.86 in SSW 5.0 mph 5.0 mph 78% 0.00 in 0.0 W/m2
22:15 73.1 °F 65.8 °F 29.86 in SSW 8.1 mph 8.1 mph 78% 0.00 in 0.0 W/m2
22:20 73.2 °F 65.9 °F 29.86 in SSW 5.8 mph 5.8 mph 78% 0.00 in 0.0 W/m2
22:25 73.3 °F 66.0 °F 29.86 in SSW 5.0 mph 5.0 mph 78% 0.00 in 0.0 W/m2
22:30 73.4 °F 65.7 °F 29.86 in SSW 9.2 mph 9.2 mph 77% 0.00 in 0.0 W/m2
22:35 73.5 °F 65.8 °F 29.87 in SW 4.6 mph 4.6 mph 77% 0.00 in 0.0 W/m2
22:40 73.4 °F 65.7 °F 29.87 in South 2.0 mph 2.0 mph 77% 0.00 in 0.0 W/m2
22:45 73.3 °F 65.7 °F 29.88 in SSW 5.8 mph 5.8 mph 77% 0.00 in 0.0 W/m2
22:50 73.3 °F 65.7 °F 29.88 in SSW 8.1 mph 8.1 mph 77% 0.00 in 0.0 W/m2
22:55 73.4 °F 65.7 °F 29.88 in SW 5.8 mph 5.8 mph 77% 0.00 in 0.0 W/m2
23:00 73.4 °F 65.7 °F 29.87 in SW 4.6 mph 4.6 mph 77% 0.00 in 0.0 W/m2
23:05 73.2 °F 65.6 °F 29.87 in SSW 6.9 mph 6.9 mph 77% 0.00 in 0.0 W/m2
23:10 73.0 °F 65.7 °F 29.87 in SSE 9.2 mph 9.2 mph 78% 0.00 in 0.0 W/m2
23:15 72.8 °F 65.5 °F 29.87 in SW 6.9 mph 6.9 mph 78% 0.00 in 0.0 W/m2
23:20 72.6 °F 65.3 °F 29.88 in South 10.4 mph 10.4 mph 78% 0.00 in 0.0 W/m2
23:25 72.6 °F 65.7 °F 29.88 in SSW 8.1 mph 8.1 mph 79% 0.00 in 0.0 W/m2
23:30 72.4 °F 65.5 °F 29.88 in SSW 9.2 mph 9.2 mph 79% 0.00 in 0.0 W/m2
23:35 72.3 °F 65.4 °F 29.88 in SSW 7.0 mph 7.0 mph 79% 0.00 in 0.0 W/m2
23:40 72.3 °F 65.4 °F 29.87 in SSW 12.7 mph 12.7 mph 79% 0.00 in 0.0 W/m2
23:45 72.2 °F 65.3 °F 29.88 in SSW 12.7 mph 12.7 mph 79% 0.00 in 0.0 W/m2
23:50 72.2 °F 65.3 °F 29.88 in SSW 10.0 mph 10.0 mph 79% 0.00 in 0.0 W/m2
23:55 72.2 °F 65.3 °F 29.88 in SSW 11.5 mph 11.5 mph 79% 0.00 in 0.0 W/m2
Bourbonnais, Illinois, USA
Compliments of Weather Underground - 4 mb